Atlantis — PCDT — position and weather

sailwx.info

Track history (hours):
 
Tides and Currents Weather Stations Pressure Air Temp Water Temp Dewpoint Dewpoint Depression Visibility Wind Speed Wind Dir Waves Ship Positions

Atlantis (Netherlands)

Ship's website: http://www.tallship-company.com/artemis/gb_atlantis.htm

Last reported at 2017-May-23 09:00 UTC. Time now 2017-May-23 09:00 UTC.
Position N 55°38' W 006°12'.

Length 40 m; draft 4.5 m.

Type: Sailing vessel. MMSI: 246253000.

Date/timePositionNaut miles runAvg speedWind from/ knotsBaromVisibWave heightAir tempDewpointWater temp
2017-May-23 09:00N 55°38' W 006°12'0 0.0
2017-May-23 08:27N 55°38' W 006°12'0 0.0
2017-May-23 07:57N 55°38' W 006°12'0 0.1
2017-May-23 07:30N 55°38' W 006°12'0 0.5
2017-May-23 06:54N 55°38' W 006°12'0 0.0
2017-May-23 06:27N 55°38' W 006°12'0 0.0
2017-May-23 05:57N 55°38' W 006°12'0 0.0
2017-May-23 05:30N 55°38' W 006°12'0 0.0
2017-May-23 04:57N 55°38' W 006°12'0 0.0
2017-May-23 04:30N 55°38' W 006°12'0 0.0
2017-May-23 04:00N 55°38' W 006°12'0 0.0
2017-May-23 03:30N 55°38' W 006°12'0 0.0
2017-May-23 02:57N 55°38' W 006°12'0 0.0
2017-May-23 02:18N 55°38' W 006°12'0 0.0
2017-May-23 01:57N 55°38' W 006°12'0 0.0
2017-May-23 01:30N 55°38' W 006°12'0 0.0
2017-May-23 01:00N 55°38' W 006°12'0 0.0
2017-May-23 00:15N 55°38' W 006°12'0 0.0
2017-May-23 00:00N 55°38' W 006°12'0 0.0
2017-May-22 23:30N 55°38' W 006°12'0 0.0
2017-May-22 23:00N 55°38' W 006°12'0 0.0
2017-May-22 22:21N 55°37' W 006°12'0 0.0
2017-May-22 21:51N 55°37' W 006°12'0 0.0
2017-May-22 21:21N 55°37' W 006°12'0 0.0
2017-May-22 20:51N 55°37' W 006°12'0 0.0
2017-May-22 20:21N 55°37' W 006°12'0 0.0
2017-May-22 19:54N 55°37' W 006°12'0 0.0
2017-May-22 19:24N 55°37' W 006°12'0 0.1
2017-May-22 18:54N 55°37' W 006°12'1 2.0
2017-May-22 18:30N 55°37' W 006°12'2 5.0
2017-May-22 18:00N 55°36' W 006°08'3 5.7
2017-May-22 17:30N 55°37' W 006°03'3 6.2
2017-May-22 17:00N 55°40' W 005°60'39 1.5
2017-May-21 14:38N 56°18' W 005°46'1 6.2
2017-May-21 14:29N 56°19' W 005°44'6 6.3
2017-May-21 13:29N 56°24' W 005°38'3 5.9
2017-May-21 13:00N 56°27' W 005°38'1 2.2
2017-May-21 12:30N 56°27' W 005°40'0 0.0
2017-May-21 11:57N 56°27' W 005°40'0 0.0
2017-May-21 11:26N 56°27' W 005°40'0 0.0
2017-May-21 10:51N 56°27' W 005°40'0 0.2
2017-May-21 10:31N 56°27' W 005°40'2 3.7
2017-May-21 10:01N 56°27' W 005°36'2 3.3
2017-May-21 09:30N 56°26' W 005°34'2 4.1
2017-May-21 09:00N 56°26' W 005°30'1 1.6
2017-May-21 08:12N 56°25' W 005°29'0 0.0
2017-May-21 07:45N 56°25' W 005°29'0 0.0
2017-May-21 04:42N 56°25' W 005°29'0 0.0
2017-May-20 19:54N 56°25' W 005°29'0 0.0
2017-May-20 18:45N 56°25' W 005°29'0 0.0
2017-May-20 18:27N 56°25' W 005°29'0 0.0
2017-May-20 17:57N 56°25' W 005°29'0 0.0
2017-May-20 17:30N 56°25' W 005°29'0 0.0
2017-May-20 17:00N 56°25' W 005°29'0 0.0
2017-May-20 16:21N 56°25' W 005°29'0 0.0
2017-May-20 16:00N 56°25' W 005°29'0 0.0
2017-May-20 15:24N 56°25' W 005°29'0 0.0
2017-May-20 14:57N 56°25' W 005°29'0 0.0
2017-May-20 13:54N 56°25' W 005°29'0 0.0
2017-May-20 13:15N 56°25' W 005°29'0 0.0
2017-May-20 12:54N 56°25' W 005°29'0 0.0
2017-May-20 12:27N 56°25' W 005°29'0 0.0
2017-May-20 11:51N 56°25' W 005°29'0 0.0
2017-May-20 11:30N 56°25' W 005°29'0 0.0
2017-May-20 11:00N 56°25' W 005°29'0 0.0
2017-May-20 10:30N 56°25' W 005°29'0 0.0
2017-May-19 23:57N 56°25' W 005°29'0 0.0
2017-May-19 23:27N 56°25' W 005°29'0 0.0
2017-May-19 22:21N 56°25' W 005°29'0 0.0
2017-May-19 21:03N 56°25' W 005°29'0 0.0
2017-May-19 20:57N 56°25' W 005°29'0 0.0
2017-May-19 18:42N 56°25' W 005°29'0 0.0
2017-May-19 16:30N 56°25' W 005°29'0 0.0
2017-May-19 15:57N 56°25' W 005°29'0 0.0
2017-May-19 15:30N 56°25' W 005°29'0 0.0
2017-May-19 15:00N 56°25' W 005°29'0 0.0
2017-May-19 14:00N 56°25' W 005°29'2 3.8
2017-May-19 13:30N 56°26' W 005°31'2 4.1
2017-May-19 13:00N 56°27' W 005°35'2 3.9
2017-May-19 12:30N 56°27' W 005°38'1 1.7
2017-May-19 12:00N 56°27' W 005°40'0 0.0
2017-May-19 11:30N 56°27' W 005°40'0 0.0
2017-May-19 11:00N 56°27' W 005°40'0 0.0
2017-May-19 10:27N 56°27' W 005°40'0 0.2
2017-May-19 10:00N 56°28' W 005°40'3 5.8
2017-May-19 09:29N 56°30' W 005°43'  
Track history (hours):
 
Tides and Currents Weather Stations Pressure Air Temp Water Temp Dewpoint Dewpoint Depression Visibility Wind Speed Wind Dir Waves Ship Positions

Atlantis (Netherlands)

Ship's website: http://www.tallship-company.com/artemis/gb_atlantis.htm

Last reported at 2017-May-23 09:00 UTC. Time now 2017-May-23 09:00 UTC.
Position N 55°38' W 006°12'.

Length 40 m; draft 4.5 m.

Type: Sailing vessel. MMSI: 246253000.

Date/timePositionNaut miles runAvg speedWind from/ knotsBaromVisibWave heightAir tempDewpointWater temp
2017-May-23 09:00N 55°38' W 006°12'0 0.0
2017-May-23 08:27N 55°38' W 006°12'0 0.0
2017-May-23 07:57N 55°38' W 006°12'0 0.1
2017-May-23 07:30N 55°38' W 006°12'0 0.5
2017-May-23 06:54N 55°38' W 006°12'0 0.0
2017-May-23 06:27N 55°38' W 006°12'0 0.0
2017-May-23 05:57N 55°38' W 006°12'0 0.0
2017-May-23 05:30N 55°38' W 006°12'0 0.0
2017-May-23 04:57N 55°38' W 006°12'0 0.0
2017-May-23 04:30N 55°38' W 006°12'0 0.0
2017-May-23 04:00N 55°38' W 006°12'0 0.0
2017-May-23 03:30N 55°38' W 006°12'0 0.0
2017-May-23 02:57N 55°38' W 006°12'0 0.0
2017-May-23 02:18N 55°38' W 006°12'0 0.0
2017-May-23 01:57N 55°38' W 006°12'0 0.0
2017-May-23 01:30N 55°38' W 006°12'0 0.0
2017-May-23 01:00N 55°38' W 006°12'0 0.0
2017-May-23 00:15N 55°38' W 006°12'0 0.0
2017-May-23 00:00N 55°38' W 006°12'0 0.0
2017-May-22 23:30N 55°38' W 006°12'0 0.0
2017-May-22 23:00N 55°38' W 006°12'0 0.0
2017-May-22 22:21N 55°37' W 006°12'0 0.0
2017-May-22 21:51N 55°37' W 006°12'0 0.0
2017-May-22 21:21N 55°37' W 006°12'0 0.0
2017-May-22 20:51N 55°37' W 006°12'0 0.0
2017-May-22 20:21N 55°37' W 006°12'0 0.0
2017-May-22 19:54N 55°37' W 006°12'0 0.0
2017-May-22 19:24N 55°37' W 006°12'0 0.1
2017-May-22 18:54N 55°37' W 006°12'1 2.0
2017-May-22 18:30N 55°37' W 006°12'2 5.0
2017-May-22 18:00N 55°36' W 006°08'3 5.7
2017-May-22 17:30N 55°37' W 006°03'3 6.2
2017-May-22 17:00N 55°40' W 005°60'39 1.5
2017-May-21 14:38N 56°18' W 005°46'1 6.2
2017-May-21 14:29N 56°19' W 005°44'6 6.3
2017-May-21 13:29N 56°24' W 005°38'3 5.9
2017-May-21 13:00N 56°27' W 005°38'1 2.2
2017-May-21 12:30N 56°27' W 005°40'0 0.0
2017-May-21 11:57N 56°27' W 005°40'0 0.0
2017-May-21 11:26N 56°27' W 005°40'0 0.0
2017-May-21 10:51N 56°27' W 005°40'0 0.2
2017-May-21 10:31N 56°27' W 005°40'2 3.7
2017-May-21 10:01N 56°27' W 005°36'2 3.3
2017-May-21 09:30N 56°26' W 005°34'2 4.1
2017-May-21 09:00N 56°26' W 005°30'1 1.6
2017-May-21 08:12N 56°25' W 005°29'0 0.0
2017-May-21 07:45N 56°25' W 005°29'0 0.0
2017-May-21 04:42N 56°25' W 005°29'0 0.0
2017-May-20 19:54N 56°25' W 005°29'0 0.0
2017-May-20 18:45N 56°25' W 005°29'0 0.0
2017-May-20 18:27N 56°25' W 005°29'0 0.0
2017-May-20 17:57N 56°25' W 005°29'0 0.0
2017-May-20 17:30N 56°25' W 005°29'0 0.0
2017-May-20 17:00N 56°25' W 005°29'0 0.0
2017-May-20 16:21N 56°25' W 005°29'0 0.0
2017-May-20 16:00N 56°25' W 005°29'0 0.0
2017-May-20 15:24N 56°25' W 005°29'0 0.0
2017-May-20 14:57N 56°25' W 005°29'0 0.0
2017-May-20 13:54N 56°25' W 005°29'0 0.0
2017-May-20 13:15N 56°25' W 005°29'0 0.0
2017-May-20 12:54N 56°25' W 005°29'0 0.0
2017-May-20 12:27N 56°25' W 005°29'0 0.0
2017-May-20 11:51N 56°25' W 005°29'0 0.0
2017-May-20 11:30N 56°25' W 005°29'0 0.0
2017-May-20 11:00N 56°25' W 005°29'0 0.0
2017-May-20 10:30N 56°25' W 005°29'0 0.0
2017-May-19 23:57N 56°25' W 005°29'0 0.0
2017-May-19 23:27N 56°25' W 005°29'0 0.0
2017-May-19 22:21N 56°25' W 005°29'0 0.0
2017-May-19 21:03N 56°25' W 005°29'0 0.0
2017-May-19 20:57N 56°25' W 005°29'0 0.0
2017-May-19 18:42N 56°25' W 005°29'0 0.0
2017-May-19 16:30N 56°25' W 005°29'0 0.0
2017-May-19 15:57N 56°25' W 005°29'0 0.0
2017-May-19 15:30N 56°25' W 005°29'0 0.0
2017-May-19 15:00N 56°25' W 005°29'0 0.0
2017-May-19 14:00N 56°25' W 005°29'2 3.8
2017-May-19 13:30N 56°26' W 005°31'2 4.1
2017-May-19 13:00N 56°27' W 005°35'2 3.9
2017-May-19 12:30N 56°27' W 005°38'1 1.7
2017-May-19 12:00N 56°27' W 005°40'0 0.0
2017-May-19 11:30N 56°27' W 005°40'0 0.0
2017-May-19 11:00N 56°27' W 005°40'0 0.0
2017-May-19 10:27N 56°27' W 005°40'0 0.2
2017-May-19 10:00N 56°28' W 005°40'3 5.8
2017-May-19 09:29N 56°30' W 005°43'  

Dump ship's entire track history